Norwichtown, Connecticut
Current Conditions -  °F | °C
As of 3:52 PM on Saturday 25 Oct 2014 (Local Time) from KIJD Reporting Station
Clear Clear  
Wind Chill: 65°   Ceiling: Unl
Heat Index: 65°   Visibility: 10mi
Dew Point: 41°   Wind: 8mph
Humidity: 42%   Direction: 270°W
Pressure: 29.63"   Gusts: NA
Location:  41.5523°N, 72.0921°W
Report Text: KIJD 251952Z AUTO 27007KT 10SM CLR 18/05 A2963 RMK AO2 SLP034 T01830050
Loading
Personal Weather Stations






























Interactive Weather Map
Tropical Storm Tracking
New forecast layout! Learn more

10-Day Weather Forecast

Advertisements
Track Severe Weather on mobile